sensor_id;sensor_type;location;lat;lon;timestamp;pressure;altitude;pressure_sealevel;temperature;humidity
29359;BME280;16347;53.232;6.556;2024-01-15T00:00:48;99963.00;;;5.00;64.58
29359;BME280;16347;53.232;6.556;2024-01-15T00:03:16;99941.19;;;4.84;66.84
29359;BME280;16347;53.232;6.556;2024-01-15T00:05:44;99908.56;;;4.87;67.42
29359;BME280;16347;53.232;6.556;2024-01-15T00:08:12;99905.31;;;4.84;68.02
29359;BME280;16347;53.232;6.556;2024-01-15T00:10:41;99895.59;;;4.73;68.58
29359;BME280;16347;53.232;6.556;2024-01-15T00:13:10;99887.66;;;4.72;68.86
29359;BME280;16347;53.232;6.556;2024-01-15T00:15:37;99875.63;;;4.66;68.76
29359;BME280;16347;53.232;6.556;2024-01-15T00:18:06;99888.50;;;4.72;69.03
29359;BME280;16347;53.232;6.556;2024-01-15T00:20:34;99863.72;;;4.59;68.86
29359;BME280;16347;53.232;6.556;2024-01-15T00:23:02;99877.94;;;4.32;69.46
29359;BME280;16347;53.232;6.556;2024-01-15T00:25:30;99867.00;;;4.43;69.76
29359;BME280;16347;53.232;6.556;2024-01-15T00:27:59;99871.56;;;4.43;70.03
29359;BME280;16347;53.232;6.556;2024-01-15T00:30:28;99863.91;;;4.29;70.13
29359;BME280;16347;53.232;6.556;2024-01-15T00:32:56;99859.94;;;4.13;70.64
29359;BME280;16347;53.232;6.556;2024-01-15T00:35:24;99858.81;;;4.06;70.88
29359;BME280;16347;53.232;6.556;2024-01-15T00:37:52;99861.63;;;4.24;71.20
29359;BME280;16347;53.232;6.556;2024-01-15T00:40:20;99854.44;;;4.25;71.40
29359;BME280;16347;53.232;6.556;2024-01-15T00:42:48;99847.91;;;4.18;71.62
29359;BME280;16347;53.232;6.556;2024-01-15T00:45:16;99843.38;;;4.18;72.03
29359;BME280;16347;53.232;6.556;2024-01-15T00:47:45;99840.13;;;4.05;72.96
29359;BME280;16347;53.232;6.556;2024-01-15T00:50:13;99842.78;;;4.34;72.67
29359;BME280;16347;53.232;6.556;2024-01-15T00:52:41;99844.78;;;4.32;72.27
29359;BME280;16347;53.232;6.556;2024-01-15T00:55:08;99846.03;;;4.37;72.78
29359;BME280;16347;53.232;6.556;2024-01-15T00:57:36;99841.28;;;4.12;73.39
29359;BME280;16347;53.232;6.556;2024-01-15T01:00:05;99844.78;;;4.32;73.43
29359;BME280;16347;53.232;6.556;2024-01-15T01:02:35;99846.34;;;4.34;73.33
29359;BME280;16347;53.232;6.556;2024-01-15T01:05:04;99826.78;;;4.42;73.14
29359;BME280;16347;53.232;6.556;2024-01-15T01:07:32;99824.38;;;4.48;72.92
29359;BME280;16347;53.232;6.556;2024-01-15T01:10:00;99817.25;;;4.57;72.48
29359;BME280;16347;53.232;6.556;2024-01-15T01:12:28;99821.81;;;4.47;72.43
29359;BME280;16347;53.232;6.556;2024-01-15T01:14:56;99826.22;;;4.38;72.76
29359;BME280;16347;53.232;6.556;2024-01-15T01:17:25;99825.78;;;4.52;72.73
29359;BME280;16347;53.232;6.556;2024-01-15T01:19:53;99811.75;;;4.49;72.74
29359;BME280;16347;53.232;6.556;2024-01-15T01:22:22;99818.31;;;4.27;73.39
29359;BME280;16347;53.232;6.556;2024-01-15T01:24:50;99818.13;;;4.48;73.31
29359;BME280;16347;53.232;6.556;2024-01-15T01:27:18;99819.13;;;4.56;73.03
29359;BME280;16347;53.232;6.556;2024-01-15T01:29:46;99815.56;;;4.56;72.68
29359;BME280;16347;53.232;6.556;2024-01-15T01:32:13;99810.22;;;4.37;73.07
29359;BME280;16347;53.232;6.556;2024-01-15T01:34:41;99814.44;;;4.49;73.16
29359;BME280;16347;53.232;6.556;2024-01-15T01:37:10;99797.81;;;4.73;72.53
29359;BME280;16347;53.232;6.556;2024-01-15T01:39:40;99797.25;;;4.69;72.00
29359;BME280;16347;53.232;6.556;2024-01-15T01:42:08;99793.19;;;4.55;71.91
29359;BME280;16347;53.232;6.556;2024-01-15T01:44:36;99793.03;;;4.57;71.98
29359;BME280;16347;53.232;6.556;2024-01-15T01:47:05;99787.06;;;4.63;71.65
29359;BME280;16347;53.232;6.556;2024-01-15T01:49:33;99785.88;;;4.75;71.38
29359;BME280;16347;53.232;6.556;2024-01-15T01:52:05;99780.69;;;4.64;71.15
29359;BME280;16347;53.232;6.556;2024-01-15T01:54:35;99777.28;;;4.62;71.26
29359;BME280;16347;53.232;6.556;2024-01-15T01:57:05;99776.53;;;4.79;70.45
29359;BME280;16347;53.232;6.556;2024-01-15T01:59:34;99775.50;;;4.90;70.07
29359;BME280;16347;53.232;6.556;2024-01-15T02:02:03;99772.03;;;4.97;69.59
29359;BME280;16347;53.232;6.556;2024-01-15T02:04:31;99771.84;;;5.08;68.60
29359;BME280;16347;53.232;6.556;2024-01-15T02:07:00;99782.50;;;5.28;68.43
29359;BME280;16347;53.232;6.556;2024-01-15T02:09:28;99778.94;;;5.27;67.58
29359;BME280;16347;53.232;6.556;2024-01-15T02:11:56;99772.56;;;5.28;67.12
29359;BME280;16347;53.232;6.556;2024-01-15T02:14:25;99772.19;;;5.41;66.86
29359;BME280;16347;53.232;6.556;2024-01-15T02:16:53;99781.16;;;5.59;66.24
29359;BME280;16347;53.232;6.556;2024-01-15T02:19:20;99777.91;;;5.38;65.85
29359;BME280;16347;53.232;6.556;2024-01-15T02:21:48;99778.59;;;5.40;65.97
29359;BME280;16347;53.232;6.556;2024-01-15T02:24:18;99776.13;;;5.29;66.28
29359;BME280;16347;53.232;6.556;2024-01-15T02:26:46;99786.34;;;5.25;66.04
29359;BME280;16347;53.232;6.556;2024-01-15T02:29:13;99787.59;;;5.31;66.17
29359;BME280;16347;53.232;6.556;2024-01-15T02:31:42;99807.81;;;5.17;66.10
29359;BME280;16347;53.232;6.556;2024-01-15T02:34:10;99802.75;;;5.04;66.65
29359;BME280;16347;53.232;6.556;2024-01-15T02:36:38;99802.22;;;5.28;66.70
29359;BME280;16347;53.232;6.556;2024-01-15T02:39:06;99786.22;;;5.44;66.17
29359;BME280;16347;53.232;6.556;2024-01-15T02:41:35;99792.69;;;5.51;64.86
29359;BME280;16347;53.232;6.556;2024-01-15T02:44:03;99786.47;;;5.51;64.05
29359;BME280;16347;53.232;6.556;2024-01-15T02:46:31;99794.19;;;5.63;63.51
29359;BME280;16347;53.232;6.556;2024-01-15T02:48:59;99794.09;;;5.55;63.12
29359;BME280;16347;53.232;6.556;2024-01-15T02:51:28;99788.72;;;5.55;63.72
29359;BME280;16347;53.232;6.556;2024-01-15T02:53:56;99778.47;;;5.59;64.22
29359;BME280;16347;53.232;6.556;2024-01-15T02:56:24;99779.88;;;5.63;64.13
29359;BME280;16347;53.232;6.556;2024-01-15T02:58:54;99784.94;;;5.66;64.36
29359;BME280;16347;53.232;6.556;2024-01-15T03:01:22;99791.50;;;5.81;64.15
29359;BME280;16347;53.232;6.556;2024-01-15T03:03:50;99787.56;;;5.76;63.81
29359;BME280;16347;53.232;6.556;2024-01-15T03:06:18;99790.81;;;5.79;62.83
29359;BME280;16347;53.232;6.556;2024-01-15T03:08:46;99783.56;;;5.62;63.15
29359;BME280;16347;53.232;6.556;2024-01-15T03:11:14;99789.59;;;5.74;63.14
29359;BME280;16347;53.232;6.556;2024-01-15T03:13:42;99784.63;;;5.69;63.15
29359;BME280;16347;53.232;6.556;2024-01-15T03:16:11;99781.63;;;5.72;63.02
29359;BME280;16347;53.232;6.556;2024-01-15T03:18:39;99786.41;;;5.78;62.64
29359;BME280;16347;53.232;6.556;2024-01-15T03:21:07;99804.38;;;5.69;63.75
29359;BME280;16347;53.232;6.556;2024-01-15T03:23:36;99800.06;;;5.77;64.09
29359;BME280;16347;53.232;6.556;2024-01-15T03:26:04;99800.38;;;5.91;64.35
29359;BME280;16347;53.232;6.556;2024-01-15T03:28:32;99803.84;;;6.01;64.36
29359;BME280;16347;53.232;6.556;2024-01-15T03:31:00;99805.56;;;6.02;64.07
29359;BME280;16347;53.232;6.556;2024-01-15T03:33:33;99797.31;;;6.04;64.05
29359;BME280;16347;53.232;6.556;2024-01-15T03:36:01;99799.78;;;5.97;63.96
29359;BME280;16347;53.232;6.556;2024-01-15T03:38:30;99796.16;;;5.89;63.85
29359;BME280;16347;53.232;6.556;2024-01-15T03:40:58;99792.81;;;5.95;64.00
29359;BME280;16347;53.232;6.556;2024-01-15T03:43:26;99790.66;;;5.98;63.84
29359;BME280;16347;53.232;6.556;2024-01-15T03:45:54;99799.63;;;5.99;63.94
29359;BME280;16347;53.232;6.556;2024-01-15T03:48:23;99800.06;;;5.94;63.74
29359;BME280;16347;53.232;6.556;2024-01-15T03:50:53;99796.59;;;6.02;63.65
29359;BME280;16347;53.232;6.556;2024-01-15T03:53:21;99780.59;;;6.00;63.26
29359;BME280;16347;53.232;6.556;2024-01-15T03:55:49;99783.28;;;6.00;62.97
29359;BME280;16347;53.232;6.556;2024-01-15T03:58:17;99791.06;;;6.03;62.23
29359;BME280;16347;53.232;6.556;2024-01-15T04:00:45;99780.72;;;5.99;61.58
29359;BME280;16347;53.232;6.556;2024-01-15T04:03:14;99782.56;;;5.98;61.23
29359;BME280;16347;53.232;6.556;2024-01-15T04:05:42;99779.03;;;5.98;61.48
29359;BME280;16347;53.232;6.556;2024-01-15T04:08:12;99777.66;;;5.94;61.47
29359;BME280;16347;53.232;6.556;2024-01-15T04:10:39;99772.28;;;5.94;60.88
29359;BME280;16347;53.232;6.556;2024-01-15T04:13:08;99773.56;;;5.90;59.75
29359;BME280;16347;53.232;6.556;2024-01-15T04:15:36;99787.78;;;5.82;59.56
29359;BME280;16347;53.232;6.556;2024-01-15T04:18:04;99806.84;;;5.63;60.13
29359;BME280;16347;53.232;6.556;2024-01-15T04:20:32;99794.28;;;5.54;61.37
29359;BME280;16347;53.232;6.556;2024-01-15T04:23:00;99800.22;;;5.30;62.14
29359;BME280;16347;53.232;6.556;2024-01-15T04:25:29;99794.25;;;5.36;62.42
29359;BME280;16347;53.232;6.556;2024-01-15T04:27:58;99771.41;;;5.31;62.42
29359;BME280;16347;53.232;6.556;2024-01-15T04:30:26;99767.69;;;5.14;62.39
29359;BME280;16347;53.232;6.556;2024-01-15T04:32:54;99770.59;;;5.30;62.66
29359;BME280;16347;53.232;6.556;2024-01-15T04:35:22;99754.88;;;5.26;62.05
29359;BME280;16347;53.232;6.556;2024-01-15T04:37:50;99767.34;;;5.27;62.08
29359;BME280;16347;53.232;6.556;2024-01-15T04:40:17;99767.59;;;5.33;61.74
29359;BME280;16347;53.232;6.556;2024-01-15T04:42:46;99762.88;;;5.35;60.81
29359;BME280;16347;53.232;6.556;2024-01-15T04:45:14;99768.13;;;5.37;60.52
29359;BME280;16347;53.232;6.556;2024-01-15T04:47:42;99769.97;;;5.36;59.92
29359;BME280;16347;53.232;6.556;2024-01-15T04:50:10;99785.34;;;5.26;59.75
29359;BME280;16347;53.232;6.556;2024-01-15T04:52:38;99774.84;;;5.05;59.87
29359;BME280;16347;53.232;6.556;2024-01-15T04:55:06;99756.41;;;5.01;59.75
29359;BME280;16347;53.232;6.556;2024-01-15T04:57:34;99755.66;;;5.08;59.66
29359;BME280;16347;53.232;6.556;2024-01-15T05:00:04;99758.16;;;5.20;59.44
29359;BME280;16347;53.232;6.556;2024-01-15T05:02:32;99746.44;;;5.11;59.67
29359;BME280;16347;53.232;6.556;2024-01-15T05:05:00;99750.38;;;5.16;59.49
29359;BME280;16347;53.232;6.556;2024-01-15T05:07:27;99746.47;;;5.29;59.47
29359;BME280;16347;53.232;6.556;2024-01-15T05:09:55;99751.72;;;5.30;59.67
29359;BME280;16347;53.232;6.556;2024-01-15T05:12:23;99753.31;;;5.23;59.85
29359;BME280;16347;53.232;6.556;2024-01-15T05:14:51;99764.25;;;5.22;60.21
29359;BME280;16347;53.232;6.556;2024-01-15T05:17:20;99758.97;;;5.30;60.60
29359;BME280;16347;53.232;6.556;2024-01-15T05:19:48;99755.09;;;5.32;60.52
29359;BME280;16347;53.232;6.556;2024-01-15T05:22:16;99756.50;;;5.36;60.92
29359;BME280;16347;53.232;6.556;2024-01-15T05:24:44;99752.41;;;5.32;60.40
29359;BME280;16347;53.232;6.556;2024-01-15T05:27:12;99755.66;;;5.36;60.88
29359;BME280;16347;53.232;6.556;2024-01-15T05:29:40;99757.44;;;5.17;61.34
29359;BME280;16347;53.232;6.556;2024-01-15T05:32:08;99752.16;;;5.26;61.53
29359;BME280;16347;53.232;6.556;2024-01-15T05:34:37;99748.78;;;5.24;61.47
29359;BME280;16347;53.232;6.556;2024-01-15T05:37:05;99741.22;;;5.27;61.46
29359;BME280;16347;53.232;6.556;2024-01-15T05:39:33;99749.91;;;5.03;62.08
29359;BME280;16347;53.232;6.556;2024-01-15T05:42:00;99735.59;;;5.21;62.23
29359;BME280;16347;53.232;6.556;2024-01-15T05:44:28;99732.91;;;5.21;61.74
29359;BME280;16347;53.232;6.556;2024-01-15T05:46:56;99733.50;;;4.97;62.09
29359;BME280;16347;53.232;6.556;2024-01-15T05:49:24;99729.59;;;5.09;61.98
29359;BME280;16347;53.232;6.556;2024-01-15T05:51:53;99735.97;;;5.08;62.01
29359;BME280;16347;53.232;6.556;2024-01-15T05:54:21;99739.31;;;4.92;62.30
29359;BME280;16347;53.232;6.556;2024-01-15T05:56:49;99739.91;;;4.86;62.70
29359;BME280;16347;53.232;6.556;2024-01-15T05:59:17;99752.72;;;5.02;63.04
29359;BME280;16347;53.232;6.556;2024-01-15T06:01:45;99753.16;;;4.97;62.46
29359;BME280;16347;53.232;6.556;2024-01-15T06:04:13;99752.75;;;4.65;62.89
29359;BME280;16347;53.232;6.556;2024-01-15T06:06:41;99735.88;;;4.73;63.44
29359;BME280;16347;53.232;6.556;2024-01-15T06:09:11;99739.59;;;4.62;64.02
29359;BME280;16347;53.232;6.556;2024-01-15T06:11:39;99739.66;;;4.80;64.15
29359;BME280;16347;53.232;6.556;2024-01-15T06:14:06;99733.63;;;4.95;63.18
29359;BME280;16347;53.232;6.556;2024-01-15T06:16:34;99728.34;;;5.03;62.86
29359;BME280;16347;53.232;6.556;2024-01-15T06:19:02;99735.72;;;5.01;63.01
29359;BME280;16347;53.232;6.556;2024-01-15T06:21:31;99735.28;;;5.06;62.75
29359;BME280;16347;53.232;6.556;2024-01-15T06:23:58;99735.72;;;5.01;62.78
29359;BME280;16347;53.232;6.556;2024-01-15T06:26:28;99740.22;;;4.83;63.32
29359;BME280;16347;53.232;6.556;2024-01-15T06:28:56;99730.56;;;4.81;63.95
29359;BME280;16347;53.232;6.556;2024-01-15T06:31:24;99727.63;;;4.74;64.23
29359;BME280;16347;53.232;6.556;2024-01-15T06:33:55;99732.88;;;4.76;64.53
29359;BME280;16347;53.232;6.556;2024-01-15T06:36:23;99739.41;;;4.73;64.79
29359;BME280;16347;53.232;6.556;2024-01-15T06:38:51;99760.66;;;4.76;65.38
29359;BME280;16347;53.232;6.556;2024-01-15T06:41:19;99751.09;;;4.54;65.69
29359;BME280;16347;53.232;6.556;2024-01-15T06:43:49;99751.84;;;4.37;66.89
29359;BME280;16347;53.232;6.556;2024-01-15T06:46:20;99742.25;;;4.35;67.73
29359;BME280;16347;53.232;6.556;2024-01-15T06:48:48;99736.56;;;4.38;68.11
29359;BME280;16347;53.232;6.556;2024-01-15T06:51:16;99741.69;;;4.31;68.48
29359;BME280;16347;53.232;6.556;2024-01-15T06:53:44;99733.66;;;4.22;69.28
29359;BME280;16347;53.232;6.556;2024-01-15T06:56:12;99730.97;;;4.12;69.57
29359;BME280;16347;53.232;6.556;2024-01-15T06:58:39;99725.69;;;4.20;69.60
29359;BME280;16347;53.232;6.556;2024-01-15T07:01:09;99735.06;;;4.26;69.31
29359;BME280;16347;53.232;6.556;2024-01-15T07:03:37;99750.06;;;4.19;69.32
29359;BME280;16347;53.232;6.556;2024-01-15T07:06:05;99764.25;;;4.01;69.23
29359;BME280;16347;53.232;6.556;2024-01-15T07:08:33;99751.38;;;4.05;69.65
29359;BME280;16347;53.232;6.556;2024-01-15T07:11:03;99753.34;;;4.12;69.47
29359;BME280;16347;53.232;6.556;2024-01-15T07:13:32;99753.47;;;4.21;69.20
29359;BME280;16347;53.232;6.556;2024-01-15T07:16:00;99744.28;;;4.13;69.29
29359;BME280;16347;53.232;6.556;2024-01-15T07:18:29;99743.38;;;4.32;69.37
29359;BME280;16347;53.232;6.556;2024-01-15T07:20:58;99742.22;;;4.44;68.87
29359;BME280;16347;53.232;6.556;2024-01-15T07:23:28;99727.84;;;4.63;68.43
29359;BME280;16347;53.232;6.556;2024-01-15T07:25:57;99740.03;;;4.57;67.82
29359;BME280;16347;53.232;6.556;2024-01-15T07:28:25;99735.81;;;4.55;67.56
29359;BME280;16347;53.232;6.556;2024-01-15T07:30:53;99738.16;;;4.68;67.79
29359;BME280;16347;53.232;6.556;2024-01-15T07:33:21;99737.22;;;4.59;67.07
29359;BME280;16347;53.232;6.556;2024-01-15T07:35:50;99733.78;;;4.67;66.59
29359;BME280;16347;53.232;6.556;2024-01-15T07:38:18;99732.16;;;4.46;66.49
29359;BME280;16347;53.232;6.556;2024-01-15T07:40:46;99736.13;;;4.42;66.34
29359;BME280;16347;53.232;6.556;2024-01-15T07:43:16;99736.19;;;4.60;65.68
29359;BME280;16347;53.232;6.556;2024-01-15T07:45:44;99757.22;;;4.47;65.55
29359;BME280;16347;53.232;6.556;2024-01-15T07:48:12;99753.13;;;4.33;65.53
29359;BME280;16347;53.232;6.556;2024-01-15T07:50:40;99752.16;;;4.34;65.60
29359;BME280;16347;53.232;6.556;2024-01-15T07:53:10;99737.94;;;4.05;66.51
29359;BME280;16347;53.232;6.556;2024-01-15T07:55:38;99748.00;;;3.84;67.68
29359;BME280;16347;53.232;6.556;2024-01-15T07:58:05;99747.16;;;4.02;67.61
29359;BME280;16347;53.232;6.556;2024-01-15T08:00:42;99745.56;;;4.09;67.83
29359;BME280;16347;53.232;6.556;2024-01-15T08:03:11;99751.47;;;4.13;68.11
29359;BME280;16347;53.232;6.556;2024-01-15T08:05:40;99747.16;;;4.02;68.26
29359;BME280;16347;53.232;6.556;2024-01-15T08:08:09;99745.28;;;3.93;69.02
29359;BME280;16347;53.232;6.556;2024-01-15T08:10:37;99738.50;;;3.80;69.76
29359;BME280;16347;53.232;6.556;2024-01-15T08:13:05;99745.59;;;3.81;70.01
29359;BME280;16347;53.232;6.556;2024-01-15T08:15:34;99734.28;;;3.58;70.86
29359;BME280;16347;53.232;6.556;2024-01-15T08:18:03;99736.84;;;3.79;70.97
29359;BME280;16347;53.232;6.556;2024-01-15T08:20:31;99734.97;;;3.70;70.85
29359;BME280;16347;53.232;6.556;2024-01-15T08:22:59;99743.59;;;4.02;70.50
29359;BME280;16347;53.232;6.556;2024-01-15T08:25:29;99735.97;;;3.88;70.39
29359;BME280;16347;53.232;6.556;2024-01-15T08:27:57;99741.63;;;3.94;69.70
29359;BME280;16347;53.232;6.556;2024-01-15T08:30:25;99748.25;;;4.00;69.11
29359;BME280;16347;53.232;6.556;2024-01-15T08:32:54;99744.72;;;4.09;69.04
29359;BME280;16347;53.232;6.556;2024-01-15T08:35:33;99736.09;;;4.05;68.37
29359;BME280;16347;53.232;6.556;2024-01-15T08:38:02;99736.78;;;4.07;67.88
29359;BME280;16347;53.232;6.556;2024-01-15T08:40:31;99732.06;;;4.29;67.85
29359;BME280;16347;53.232;6.556;2024-01-15T08:43:00;99736.59;;;4.28;67.68
29359;BME280;16347;53.232;6.556;2024-01-15T08:45:28;99750.31;;;4.35;67.10
29359;BME280;16347;53.232;6.556;2024-01-15T08:47:58;99753.84;;;4.35;66.78
29359;BME280;16347;53.232;6.556;2024-01-15T08:50:26;99754.50;;;4.56;66.44
29359;BME280;16347;53.232;6.556;2024-01-15T08:52:54;99757.19;;;4.56;66.14
29359;BME280;16347;53.232;6.556;2024-01-15T08:55:22;99761.69;;;4.65;66.23
29359;BME280;16347;53.232;6.556;2024-01-15T08:57:52;99742.16;;;4.54;66.59
29359;BME280;16347;53.232;6.556;2024-01-15T09:00:21;99745.72;;;4.54;67.05
29359;BME280;16347;53.232;6.556;2024-01-15T09:02:49;99735.84;;;4.45;66.74
29359;BME280;16347;53.232;6.556;2024-01-15T09:05:17;99741.94;;;4.38;67.30
29359;BME280;16347;53.232;6.556;2024-01-15T09:07:45;99735.31;;;4.32;67.92
29359;BME280;16347;53.232;6.556;2024-01-15T09:10:13;99739.97;;;4.30;68.42
29359;BME280;16347;53.232;6.556;2024-01-15T09:12:41;99745.69;;;4.18;68.82
29359;BME280;16347;53.232;6.556;2024-01-15T09:15:11;99739.00;;;4.31;68.58
29359;BME280;16347;53.232;6.556;2024-01-15T09:17:38;99744.41;;;4.22;68.54
29359;BME280;16347;53.232;6.556;2024-01-15T09:20:08;99740.53;;;4.34;68.63
29359;BME280;16347;53.232;6.556;2024-01-15T09:22:37;99746.81;;;4.25;68.45
29359;BME280;16347;53.232;6.556;2024-01-15T09:25:07;99744.09;;;4.34;68.22
29359;BME280;16347;53.232;6.556;2024-01-15T09:27:36;99746.59;;;4.45;68.39
29359;BME280;16347;53.232;6.556;2024-01-15T09:30:05;99726.28;;;4.60;67.54
29359;BME280;16347;53.232;6.556;2024-01-15T09:32:35;99716.34;;;4.61;67.29
29359;BME280;16347;53.232;6.556;2024-01-15T09:35:03;99732.88;;;4.76;66.87
29359;BME280;16347;53.232;6.556;2024-01-15T09:37:31;99732.06;;;4.65;66.89
29359;BME280;16347;53.232;6.556;2024-01-15T09:40:13;99731.19;;;4.38;67.72
29359;BME280;16347;53.232;6.556;2024-01-15T09:42:43;99726.78;;;4.37;67.84
29359;BME280;16347;53.232;6.556;2024-01-15T09:45:13;99727.97;;;4.25;68.30
29359;BME280;16347;53.232;6.556;2024-01-15T09:47:43;99734.03;;;4.36;68.40
29359;BME280;16347;53.232;6.556;2024-01-15T09:50:13;99722.22;;;4.47;67.97
29359;BME280;16347;53.232;6.556;2024-01-15T09:52:42;99723.84;;;4.40;67.95
29359;BME280;16347;53.232;6.556;2024-01-15T09:55:11;99725.84;;;4.28;68.74
29359;BME280;16347;53.232;6.556;2024-01-15T09:57:39;99734.88;;;4.27;69.06
29359;BME280;16347;53.232;6.556;2024-01-15T10:00:08;99733.28;;;4.44;69.12
29359;BME280;16347;53.232;6.556;2024-01-15T10:02:38;99743.88;;;4.55;68.46
29359;BME280;16347;53.232;6.556;2024-01-15T10:05:08;99725.28;;;4.61;68.31
29359;BME280;16347;53.232;6.556;2024-01-15T10:07:37;99727.53;;;4.66;68.45
29359;BME280;16347;53.232;6.556;2024-01-15T10:10:07;99728.19;;;4.78;68.54
29359;BME280;16347;53.232;6.556;2024-01-15T10:12:36;99743.97;;;4.73;68.16
29359;BME280;16347;53.232;6.556;2024-01-15T10:15:04;99747.69;;;4.62;68.49
29359;BME280;16347;53.232;6.556;2024-01-15T10:17:32;99738.78;;;4.52;68.65
29359;BME280;16347;53.232;6.556;2024-01-15T10:20:00;99731.91;;;4.67;69.06
29359;BME280;16347;53.232;6.556;2024-01-15T10:22:32;99735.66;;;4.56;69.06
29359;BME280;16347;53.232;6.556;2024-01-15T10:25:00;99722.47;;;4.53;68.95
29359;BME280;16347;53.232;6.556;2024-01-15T10:27:29;99718.59;;;4.38;70.02
29359;BME280;16347;53.232;6.556;2024-01-15T10:29:59;99718.66;;;4.19;70.81
29359;BME280;16347;53.232;6.556;2024-01-15T10:32:27;99721.97;;;4.40;70.93
29359;BME280;16347;53.232;6.556;2024-01-15T10:34:55;99716.28;;;4.53;70.65
29359;BME280;16347;53.232;6.556;2024-01-15T10:37:24;99715.94;;;4.65;70.45
29359;BME280;16347;53.232;6.556;2024-01-15T10:39:56;99711.03;;;4.79;70.26
29359;BME280;16347;53.232;6.556;2024-01-15T10:42:24;99709.28;;;4.87;70.09
29359;BME280;16347;53.232;6.556;2024-01-15T10:44:53;99710.69;;;4.64;70.50
29359;BME280;16347;53.232;6.556;2024-01-15T10:47:21;99722.38;;;4.82;70.82
29359;BME280;16347;53.232;6.556;2024-01-15T10:49:50;99736.47;;;4.94;70.44
29359;BME280;16347;53.232;6.556;2024-01-15T10:52:18;99730.50;;;5.00;69.55
29359;BME280;16347;53.232;6.556;2024-01-15T10:54:47;99717.25;;;4.52;69.37
29359;BME280;16347;53.232;6.556;2024-01-15T10:57:17;99741.31;;;4.53;69.96
29359;BME280;16347;53.232;6.556;2024-01-15T10:59:46;99737.81;;;4.53;69.86
29359;BME280;16347;53.232;6.556;2024-01-15T11:02:14;99731.16;;;4.47;69.86
29359;BME280;16347;53.232;6.556;2024-01-15T11:04:42;99725.16;;;4.53;69.86
29359;BME280;16347;53.232;6.556;2024-01-15T11:07:11;99739.41;;;4.73;69.72
29359;BME280;16347;53.232;6.556;2024-01-15T11:09:39;99735.88;;;4.73;69.43
29359;BME280;16347;53.232;6.556;2024-01-15T11:12:09;99739.13;;;4.76;69.83
29359;BME280;16347;53.232;6.556;2024-01-15T11:14:45;99727.00;;;4.90;69.53
29359;BME280;16347;53.232;6.556;2024-01-15T11:17:15;99731.25;;;4.92;68.97
29359;BME280;16347;53.232;6.556;2024-01-15T11:19:44;99739.41;;;4.73;69.11
29359;BME280;16347;53.232;6.556;2024-01-15T11:25:14;99736.31;;;4.95;69.11
29359;BME280;16347;53.232;6.556;2024-01-15T11:27:45;99751.19;;;4.99;68.94
29359;BME280;16347;53.232;6.556;2024-01-15T11:30:16;99750.78;;;5.22;68.61
29359;BME280;16347;53.232;6.556;2024-01-15T11:32:44;99753.88;;;5.27;67.77
29359;BME280;16347;53.232;6.556;2024-01-15T11:35:13;99752.47;;;5.23;67.37
29359;BME280;16347;53.232;6.556;2024-01-15T11:38:03;99756.56;;;5.27;66.93
29359;BME280;16347;53.232;6.556;2024-01-15T11:40:39;99758.16;;;5.20;66.86
29359;BME280;16347;53.232;6.556;2024-01-15T11:43:09;99771.34;;;4.95;66.88
29359;BME280;16347;53.232;6.556;2024-01-15T11:45:41;99751.81;;;4.93;67.46
29359;BME280;16347;53.232;6.556;2024-01-15T11:48:11;99758.84;;;4.94;67.65
29359;BME280;16347;53.232;6.556;2024-01-15T11:50:41;99774.69;;;4.80;68.57
29359;BME280;16347;53.232;6.556;2024-01-15T11:53:18;99784.63;;;4.70;68.91
29359;BME280;16347;53.232;6.556;2024-01-15T11:55:51;99776.81;;;4.76;68.87
29359;BME280;16347;53.232;6.556;2024-01-15T11:58:20;99774.13;;;4.76;68.63
29359;BME280;16347;53.232;6.556;2024-01-15T12:00:51;99788.03;;;4.72;68.69
29359;BME280;16347;53.232;6.556;2024-01-15T12:03:21;99782.25;;;4.67;69.05
29359;BME280;16347;53.232;6.556;2024-01-15T12:05:51;99775.50;;;4.80;69.10
29359;BME280;16347;53.232;6.556;2024-01-15T12:08:23;99803.72;;;4.86;69.37
29359;BME280;16347;53.232;6.556;2024-01-15T12:10:52;99796.00;;;4.91;69.26
29359;BME280;16347;53.232;6.556;2024-01-15T12:13:20;99799.94;;;5.06;69.15
29359;BME280;16347;53.232;6.556;2024-01-15T12:15:50;99796.03;;;5.18;69.09
29359;BME280;16347;53.232;6.556;2024-01-15T12:18:18;99793.88;;;5.22;68.96
29359;BME280;16347;53.232;6.556;2024-01-15T12:20:47;99799.94;;;5.33;68.92
29359;BME280;16347;53.232;6.556;2024-01-15T12:23:15;99802.63;;;5.33;68.72
29359;BME280;16347;53.232;6.556;2024-01-15T12:25:44;99790.25;;;5.40;68.45
29359;BME280;16347;53.232;6.556;2024-01-15T12:28:14;99804.16;;;5.36;67.95
29359;BME280;16347;53.232;6.556;2024-01-15T12:30:42;99808.88;;;5.34;68.07
29359;BME280;16347;53.232;6.556;2024-01-15T12:33:18;99796.06;;;5.36;67.75
29359;BME280;16347;53.232;6.556;2024-01-15T12:35:47;99801.47;;;5.36;67.12
29359;BME280;16347;53.232;6.556;2024-01-15T12:38:15;99800.56;;;5.45;66.63
29359;BME280;16347;53.232;6.556;2024-01-15T12:40:46;99799.94;;;5.51;65.91
29359;BME280;16347;53.232;6.556;2024-01-15T12:43:13;99813.28;;;5.52;64.92
29359;BME280;16347;53.232;6.556;2024-01-15T12:45:41;99813.53;;;5.59;64.25
29359;BME280;16347;53.232;6.556;2024-01-15T12:48:10;99815.78;;;5.63;63.79
29359;BME280;16347;53.232;6.556;2024-01-15T12:50:42;99819.31;;;5.64;63.26
29359;BME280;16347;53.232;6.556;2024-01-15T12:53:12;99818.41;;;5.73;62.83
29359;BME280;16347;53.232;6.556;2024-01-15T12:55:40;99814.31;;;5.69;62.92
29359;BME280;16347;53.232;6.556;2024-01-15T12:58:08;99830.56;;;5.59;62.82
29359;BME280;16347;53.232;6.556;2024-01-15T13:00:35;99808.81;;;5.61;62.90
29359;BME280;16347;53.232;6.556;2024-01-15T13:03:04;99825.19;;;5.32;62.71
29359;BME280;16347;53.232;6.556;2024-01-15T13:05:32;99820.88;;;5.39;62.69
29359;BME280;16347;53.232;6.556;2024-01-15T13:08:03;99829.22;;;5.46;62.64
29359;BME280;16347;53.232;6.556;2024-01-15T13:10:31;99831.31;;;5.52;62.21
29359;BME280;16347;53.232;6.556;2024-01-15T13:13:00;99855.13;;;5.56;61.79
29359;BME280;16347;53.232;6.556;2024-01-15T13:15:28;99853.59;;;5.54;61.90
29359;BME280;16347;53.232;6.556;2024-01-15T13:17:56;99859.25;;;5.51;62.41
29359;BME280;16347;53.232;6.556;2024-01-15T13:20:24;99859.06;;;5.35;63.20